Time;durP1;ratioP1;P1;durP2;ratioP2;P2;SDS_P1;SDS_P2;PMS_P1;PMS_P2;Temp;Humidity;BMP_temperature;BMP_pressure;BME280_temperature;BME280_humidity;BME280_pressure;Samples;Min_cycle;Max_cycle;Signal;HPM_P1;HPM_P2
2022/06/16 00:01:11;;;;;;;14.85;4.50;;;;;;;22.93;45.62;100447.41;4149650;28;20072;-69
2022/06/16 00:03:14;;;;;;;7.68;3.85;;;;;;;22.90;45.78;100446.69;4149960;28;20052;-69
2022/06/16 00:05:26;;;;;;;9.50;3.63;;;;;;;22.88;45.46;100441.44;4149785;28;20099;-71
2022/06/16 00:07:29;;;;;;;11.15;3.83;;;;;;;22.80;45.69;100447.00;4149413;28;20030;-69
2022/06/16 00:09:32;;;;;;;9.25;3.88;;;;;;;22.78;45.94;100453.28;4150153;28;20456;-69
2022/06/16 00:11:35;;;;;;;11.20;4.20;;;;;;;22.75;45.93;100446.31;4148715;28;20046;-70
2022/06/16 00:13:40;;;;;;;7.43;3.90;;;;;;;22.78;45.91;100448.84;4146833;28;20088;-69
2022/06/16 00:15:44;;;;;;;9.73;4.25;;;;;;;22.74;46.19;100447.25;4150838;28;20116;-69
2022/06/16 00:17:48;;;;;;;;;;;;;;;22.55;46.54;100446.19;4148021;28;20290;-69
2022/06/16 00:19:51;;;;;;;13.60;4.07;;;;;;;22.61;46.44;100444.16;4149797;28;19922;-69
2022/06/16 00:21:54;;;;;;;8.63;3.92;;;;;;;22.69;46.58;100443.03;4146113;28;20038;-69
2022/06/16 00:23:57;;;;;;;7.72;3.92;;;;;;;22.69;46.75;100448.31;4147134;28;20178;-68
2022/06/16 00:26:00;;;;;;;9.52;3.85;;;;;;;22.66;46.77;100444.88;4148975;28;20396;-68
2022/06/16 00:28:04;;;;;;;6.53;3.38;;;;;;;22.65;46.89;100448.44;4147987;28;20045;-68
2022/06/16 00:30:08;;;;;;;5.93;3.25;;;;;;;22.64;47.01;100446.69;4148474;28;20137;-68
2022/06/16 00:32:11;;;;;;;7.55;3.72;;;;;;;22.65;47.27;100443.13;4148520;28;20520;-68
2022/06/16 00:34:16;;;;;;;7.40;3.97;;;;;;;22.56;47.73;100435.53;4147225;28;20042;-69
2022/06/16 00:36:19;;;;;;;7.53;3.58;;;;;;;22.53;47.63;100434.75;4131029;28;20376;-69
2022/06/16 00:38:24;;;;;;;6.20;3.45;;;;;;;22.49;47.83;100439.31;4163582;28;20512;-69
2022/06/16 00:40:27;;;;;;;;;;;;;;;22.25;48.12;100436.59;4142867;28;20136;-68
2022/06/16 00:42:30;;;;;;;12.52;4.47;;;;;;;22.33;47.82;100438.09;4146575;28;19976;-68
2022/06/16 00:44:42;;;;;;;7.10;3.90;;;;;;;22.31;48.16;100444.31;4162420;28;20041;-68
2022/06/16 00:46:45;;;;;;;10.30;4.07;;;;;;;22.30;48.75;100436.41;4147992;28;20129;-69
2022/06/16 00:48:52;;;;;;;7.63;3.30;;;;;;;22.29;49.61;100434.69;4146570;28;20552;-69
2022/06/16 00:51:01;;;;;;;8.30;3.70;;;;;;;22.22;50.73;100436.66;4149848;28;20049;-68
2022/06/16 00:53:04;;;;;;;9.35;4.18;;;;;;;22.18;50.95;100435.06;4149430;28;20471;-68
2022/06/16 00:55:13;;;;;;;9.05;5.15;;;;;;;22.19;51.23;100428.84;4148869;28;20511;-68
2022/06/16 00:57:21;;;;;;;8.63;4.22;;;;;;;22.15;51.18;100429.84;4130679;28;20113;-68
2022/06/16 00:59:24;;;;;;;9.68;3.70;;;;;;;22.15;51.84;100421.91;4165438;28;20069;-68
2022/06/16 01:01:27;;;;;;;7.55;3.90;;;;;;;22.12;52.94;100427.31;4147445;28;20046;-68
2022/06/16 01:05:51;;;;;;;7.95;3.92;;;;;;;22.04;54.07;100419.63;4149161;28;20065;-68
2022/06/16 01:07:57;;;;;;;8.95;4.07;;;;;;;22.09;53.88;100414.19;4147564;28;20069;-68
2022/06/16 01:10:01;;;;;;;10.07;4.45;;;;;;;22.07;53.36;100414.25;4130456;28;20062;-68
2022/06/16 01:14:54;;;;;;;9.70;4.40;;;;;;;21.93;54.17;100406.78;4131182;28;20113;-68
2022/06/16 01:17:04;;;;;;;6.38;3.67;;;;;;;21.83;54.78;100408.00;4146539;28;20488;-69
2022/06/16 01:19:25;;;;;;;8.10;3.53;;;;;;;21.79;54.85;100414.31;4162775;28;20048;-69
2022/06/16 01:21:38;;;;;;;9.88;4.03;;;;;;;21.72;54.59;100402.19;4148558;28;20121;-68
2022/06/16 01:24:22;;;;;;;10.13;5.03;;;;;;;21.69;54.54;100404.94;4147131;28;20038;-68
2022/06/16 01:26:49;;;;;;;8.13;3.70;;;;;;;21.65;54.06;100403.31;4158040;28;20057;-68
2022/06/16 01:29:09;;;;;;;6.95;3.60;;;;;;;21.63;53.63;100413.09;4115954;28;20080;-68
2022/06/16 01:31:21;;;;;;;9.07;4.07;;;;;;;21.57;53.40;100408.88;4160647;28;20076;-68
2022/06/16 01:33:30;;;;;;;7.95;4.07;;;;;;;21.50;52.88;100404.66;4163862;28;20053;-69
2022/06/16 01:35:38;;;;;;;9.07;4.22;;;;;;;21.53;52.59;100407.22;4142699;28;20485;-68
2022/06/16 01:37:53;;;;;;;9.85;4.32;;;;;;;21.49;52.88;100408.19;4158621;28;20095;-68
2022/06/16 01:40:02;;;;;;;9.70;3.83;;;;;;;21.45;53.31;100404.81;4146335;28;20048;-70
2022/06/16 01:42:15;;;;;;;5.95;3.72;;;;;;;21.48;53.47;100411.75;4131115;28;20121;-70
2022/06/16 01:44:25;;;;;;;6.45;3.83;;;;;;;21.50;53.55;100410.78;4137830;28;20046;-70
2022/06/16 01:46:30;;;;;;;6.20;3.65;;;;;;;;;;4150503;28;20050;-70
2022/06/16 01:48:44;;;;;;;10.15;3.92;;;;;;;21.46;54.11;100414.44;4152481;28;20076;-70
2022/06/16 01:50:53;;;;;;;7.35;4.15;;;;;;;21.38;55.34;100405.91;4146177;28;20440;-70
2022/06/16 01:53:02;;;;;;;6.72;4.25;;;;;;;21.39;55.75;100410.25;4127133;28;20049;-70
2022/06/16 01:55:10;;;;;;;10.38;4.10;;;;;;;21.39;55.31;100407.63;4164520;28;20479;-70
2022/06/16 01:57:19;;;;;;;9.43;4.03;;;;;;;21.37;54.99;100420.03;4145727;28;20030;-70
2022/06/16 01:59:28;;;;;;;8.68;4.70;;;;;;;21.34;54.51;100421.00;4152864;28;20077;-70
2022/06/16 02:01:38;;;;;;;8.60;4.32;;;;;;;21.28;53.68;100411.47;4129965;28;20050;-70
2022/06/16 02:03:47;;;;;;;8.27;4.10;;;;;;;21.27;54.02;100417.69;4159504;28;20566;-69
2022/06/16 02:05:54;;;;;;;8.43;4.03;;;;;;;21.33;54.21;100413.97;4152945;28;20030;-70
2022/06/16 02:08:04;;;;;;;6.40;4.00;;;;;;;21.36;53.94;100413.91;4144591;28;20472;-70
2022/06/16 02:10:11;;;;;;;8.20;4.00;;;;;;;21.39;53.94;100407.63;4130413;28;20046;-70
2022/06/16 02:12:55;;;;;;;7.07;4.18;;;;;;;21.42;53.31;100412.81;4129942;28;20074;-70
2022/06/16 02:14:53;;;;;;;7.70;4.38;;;;;;;21.38;53.43;100427.91;4159783;28;20060;-70
2022/06/16 02:17:17;;;;;;;8.27;4.10;;;;;;;21.32;53.61;100427.22;4145722;28;20133;-70
2022/06/16 02:19:23;;;;;;;8.27;4.03;;;;;;;21.40;52.45;100430.50;4134359;28;20594;-69
2022/06/16 02:21:34;;;;;;;6.90;3.67;;;;;;;21.41;51.87;100434.91;4146467;28;20073;-70
2022/06/16 02:23:37;;;;;;;11.57;3.92;;;;;;;21.43;51.07;100435.69;4162364;28;20095;-70
2022/06/16 02:25:40;;;;;;;8.70;3.95;;;;;;;21.45;50.90;100440.03;4145663;28;20045;-69
2022/06/16 02:27:43;;;;;;;6.60;3.80;;;;;;;21.49;50.46;100439.94;4145109;28;20057;-70
2022/06/16 02:29:47;;;;;;;7.90;3.83;;;;;;;21.52;50.41;100440.72;4146010;28;20460;-69
2022/06/16 02:32:01;;;;;;;7.80;3.40;;;;;;;21.56;50.01;100437.06;4146404;28;20133;-69
2022/06/16 02:34:15;;;;;;;5.95;3.17;;;;;;;21.55;49.63;100435.38;4130874;28;20076;-69
2022/06/16 02:36:30;;;;;;;7.88;3.85;;;;;;;21.59;49.17;100438.78;4147340;28;20042;-69
2022/06/16 02:38:51;;;;;;;8.75;3.35;;;;;;;21.62;49.01;100441.31;4145751;28;20037;-69
2022/06/16 02:41:06;;;;;;;6.35;3.35;;;;;;;21.63;48.88;100431.63;4145969;28;20037;-70
2022/06/16 02:43:25;;;;;;;6.72;3.20;;;;;;;21.65;48.46;100435.06;4146606;28;20049;-69
2022/06/16 02:45:39;;;;;;;5.47;3.58;;;;;;;21.65;48.11;100435.06;4146008;28;20034;-70
2022/06/16 02:47:58;;;;;;;5.90;3.50;;;;;;;21.70;48.23;100438.41;4146149;28;20041;-69
2022/06/16 02:50:06;;;;;;;9.75;4.15;;;;;;;21.67;48.20;100438.50;4129924;28;20056;-70
2022/06/16 02:52:20;;;;;;;9.65;4.38;;;;;;;21.72;48.04;100444.53;4145323;28;20591;-70
2022/06/16 02:54:30;;;;;;;7.00;4.30;;;;;;;21.79;48.13;100441.63;4156085;28;20140;-70
2022/06/16 02:56:39;;;;;;;7.18;3.83;;;;;;;21.84;47.58;100440.63;4154233;28;20518;-70
2022/06/16 02:58:44;;;;;;;7.30;3.45;;;;;;;21.87;47.48;100436.06;4156525;28;20404;-69
2022/06/16 03:00:53;;;;;;;6.55;3.97;;;;;;;21.99;46.97;100441.88;4160349;28;20041;-69
2022/06/16 03:02:57;;;;;;;14.32;3.80;;;;;;;21.95;47.14;100430.56;4146159;28;20532;-69
2022/06/16 03:05:00;;;;;;;;;;;;;;;21.83;47.37;100429.19;4152068;28;20045;-69
2022/06/16 03:07:06;;;;;;;7.22;3.65;;;;;;;21.90;47.45;100422.78;4144915;28;20462;-67
2022/06/16 03:09:12;;;;;;;9.30;4.10;;;;;;;21.90;47.25;100408.66;4155622;28;20037;-69
2022/06/16 03:11:16;;;;;;;9.82;4.05;;;;;;;22.02;47.15;100415.31;4145286;28;20451;-69
2022/06/16 03:13:20;;;;;;;9.18;3.70;;;;;;;21.90;47.27;100414.81;4144991;28;20049;-69
2022/06/16 03:15:23;;;;;;;;;;;;;;;21.70;47.60;100411.94;4161146;28;20037;-69
2022/06/16 03:17:26;;;;;;;7.22;3.33;;;;;;;21.76;47.68;100417.91;4144971;28;19925;-69
2022/06/16 03:19:31;;;;;;;8.18;3.92;;;;;;;21.81;47.58;100422.19;4150605;28;20042;-69
2022/06/16 03:21:35;;;;;;;8.85;4.60;;;;;;;21.76;47.63;100428.50;4157205;28;20111;-69
2022/06/16 03:23:39;;;;;;;9.93;4.13;;;;;;;21.70;47.73;100430.47;4146482;28;20037;-69
2022/06/16 03:25:42;;;;;;;7.60;3.97;;;;;;;21.71;47.69;100432.22;4145396;28;20038;-69
2022/06/16 03:27:47;;;;;;;5.70;3.28;;;;;;;21.63;48.07;100439.56;4158972;28;20052;-70
2022/06/16 03:29:52;;;;;;;9.25;4.15;;;;;;;21.61;48.19;100439.56;4146925;28;20100;-69
2022/06/16 03:31:54;;;;;;;7.90;4.30;;;;;;;21.64;48.05;100443.91;4144605;28;20409;-69
2022/06/16 03:34:01;;;;;;;9.38;4.40;;;;;;;21.59;48.10;100442.28;4146428;28;20037;-69
2022/06/16 03:36:12;;;;;;;6.80;3.65;;;;;;;21.63;47.98;100442.19;4144185;28;20034;-69
2022/06/16 03:38:19;;;;;;;8.75;4.20;;;;;;;21.55;48.22;100459.19;4139460;28;20029;-69
2022/06/16 03:40:22;;;;;;;6.85;4.50;;;;;;;21.57;48.18;100459.97;4145663;28;20076;-69
2022/06/16 03:42:28;;;;;;;8.63;4.57;;;;;;;21.54;48.19;100460.09;4144892;28;20124;-70
2022/06/16 03:44:34;;;;;;;11.13;4.40;;;;;;;21.52;48.38;100461.88;4159099;28;20037;-69
2022/06/16 03:46:38;;;;;;;10.40;4.20;;;;;;;21.51;48.44;100465.47;4156039;28;20042;-69
2022/06/16 03:48:46;;;;;;;8.20;4.47;;;;;;;21.43;48.73;100472.72;4146052;28;20092;-69
2022/06/16 03:50:56;;;;;;;9.18;4.45;;;;;;;21.39;49.02;100481.66;4145518;28;20077;-69
2022/06/16 03:53:02;;;;;;;;;;;;;;;21.25;49.44;100484.75;4143985;28;20046;-68
2022/06/16 03:55:06;;;;;;;7.70;3.70;;;;;;;21.24;49.61;100491.78;4145529;28;19928;-69
2022/06/16 03:57:09;;;;;;;8.93;4.22;;;;;;;21.36;49.42;100487.94;4147164;28;20045;-68
2022/06/16 03:59:12;;;;;;;9.43;4.65;;;;;;;21.41;48.79;100493.09;4128055;28;20035;-69
2022/06/16 04:01:16;;;;;;;9.35;4.40;;;;;;;21.42;48.54;100486.84;4145149;28;20210;-69
2022/06/16 04:05:51;;;;;;;9.85;4.85;;;;;;;21.39;48.75;100486.97;4096016;28;20050;-68
2022/06/16 04:07:54;;;;;;;7.63;4.45;;;;;;;21.37;48.70;100494.94;4128714;28;20505;-68
2022/06/16 04:10:04;;;;;;;11.02;4.47;;;;;;;21.34;48.90;100486.25;4145151;28;20050;-69
2022/06/16 04:12:09;;;;;;;7.70;3.78;;;;;;;21.33;48.89;100490.66;4145785;28;20041;-68
2022/06/16 04:14:15;;;;;;;5.60;3.47;;;;;;;21.35;48.98;100485.31;4145254;28;20045;-69
2022/06/16 04:16:41;;;;;;;10.60;4.40;;;;;;;21.40;48.97;100483.41;4139278;28;20420;-69
2022/06/16 04:18:44;;;;;;;8.20;4.00;;;;;;;21.50;48.44;100487.50;4145327;28;20038;-69
2022/06/16 04:20:48;;;;;;;9.32;3.50;;;;;;;21.43;48.87;100485.97;4144927;28;20590;-69
2022/06/16 04:23:23;;;;;;;5.60;3.67;;;;;;;21.52;48.63;100501.56;4144981;28;20161;-69
2022/06/16 04:25:31;;;;;;;;;;;;;;;21.49;48.85;100503.41;4150426;28;20427;-68
2022/06/16 04:27:39;;;;;;;8.25;4.20;;;;;;;21.57;48.14;100507.59;4144815;28;19921;-68
2022/06/16 04:29:42;;;;;;;6.18;3.25;;;;;;;21.58;48.13;100504.06;4144126;28;20065;-69
2022/06/16 04:31:49;;;;;;;10.70;3.95;;;;;;;21.68;47.67;100501.97;4144009;28;20050;-68
2022/06/16 04:33:53;;;;;;;11.55;3.70;;;;;;;21.73;47.71;100513.28;4145860;28;20093;-68
2022/06/16 04:35:56;;;;;;;10.02;4.30;;;;;;;21.75;47.95;100511.44;4144345;28;20045;-69
2022/06/16 04:38:03;;;;;;;9.98;3.70;;;;;;;21.77;47.45;100508.75;4149699;28;20381;-69
2022/06/16 04:40:10;;;;;;;7.40;3.20;;;;;;;21.77;47.36;100508.75;4148051;28;20042;-68
2022/06/16 04:42:15;;;;;;;6.65;3.83;;;;;;;21.81;47.19;100513.03;4147599;28;20524;-68
2022/06/16 04:44:18;;;;;;;;;;;;;;;21.73;47.29;100520.38;4160813;28;20057;-68
2022/06/16 04:46:22;;;;;;;8.20;3.13;;;;;;;21.71;47.56;100522.19;4162028;28;19972;-68
2022/06/16 04:48:27;;;;;;;6.13;3.15;;;;;;;21.76;47.37;100517.63;4142390;28;20042;-69
2022/06/16 04:50:31;;;;;;;8.13;3.70;;;;;;;21.84;47.43;100522.66;4163327;28;20038;-68
2022/06/16 04:52:34;;;;;;;7.38;3.35;;;;;;;21.89;47.28;100518.97;4148239;28;20038;-68
2022/06/16 04:54:37;;;;;;;8.93;3.75;;;;;;;21.93;46.88;100520.59;4146905;28;20042;-68
2022/06/16 04:57:00;;;;;;;8.38;3.45;;;;;;;21.90;47.20;100526.00;4131649;28;20592;-68
2022/06/16 04:59:04;;;;;;;8.70;3.42;;;;;;;21.92;47.17;100518.00;4148886;28;20096;-68
2022/06/16 05:01:17;;;;;;;9.38;3.30;;;;;;;21.89;47.04;100513.66;4146707;28;20472;-68
2022/06/16 05:03:28;;;;;;;8.38;3.65;;;;;;;22.02;46.82;100513.25;4146539;28;20112;-69
2022/06/16 05:05:45;;;;;;;7.78;2.95;;;;;;;21.99;47.00;100522.19;4150111;28;20515;-69
2022/06/16 05:07:57;;;;;;;7.70;3.30;;;;;;;22.02;46.85;100513.25;4147395;28;20533;-68
2022/06/16 05:10:19;;;;;;;5.30;3.03;;;;;;;22.07;46.49;100519.28;4148622;28;20104;-69
2022/06/16 05:12:38;;;;;;;7.43;3.10;;;;;;;22.09;46.37;100520.09;4147894;28;20037;-69
2022/06/16 05:15:03;;;;;;;4.78;2.88;;;;;;;22.12;46.14;100520.88;4147384;28;20558;-69
2022/06/16 05:17:26;;;;;;;6.07;3.35;;;;;;;22.23;45.94;100527.59;4111937;28;20072;-68
2022/06/16 05:19:38;;;;;;;8.15;3.97;;;;;;;22.33;45.88;100533.47;4148773;28;20124;-69
2022/06/16 05:22:06;;;;;;;7.40;3.70;;;;;;;22.33;45.75;100552.88;4128874;28;20057;-69
2022/06/16 05:24:24;;;;;;;8.65;3.70;;;;;;;22.24;46.09;100551.38;4147193;28;20045;-68
2022/06/16 05:26:49;;;;;;;5.53;2.97;;;;;;;22.17;46.51;100565.72;4147602;28;20132;-69
2022/06/16 05:29:10;;;;;;;7.82;3.67;;;;;;;22.36;45.69;100565.16;4148081;28;20042;-68
2022/06/16 05:31:47;;;;;;;9.05;3.40;;;;;;;22.39;45.18;100565.91;4142442;28;20046;-68
2022/06/16 05:34:02;;;;;;;9.65;3.50;;;;;;;22.35;45.89;100568.72;4128378;28;20564;-68
2022/06/16 05:36:37;;;;;;;6.33;3.10;;;;;;;22.25;45.50;100584.91;4137814;28;20050;-68
2022/06/16 05:39:03;;;;;;;9.10;4.03;;;;;;;22.34;45.90;100593.47;4146783;28;20042;-68
2022/06/16 05:41:10;;;;;;;5.78;3.38;;;;;;;22.29;45.75;100586.50;4147601;28;20048;-68
2022/06/16 05:43:36;;;;;;;6.38;3.55;;;;;;;22.25;45.65;100592.84;4141306;28;20050;-69
2022/06/16 05:45:42;;;;;;;11.23;4.00;;;;;;;22.31;45.43;100594.41;4145825;28;20065;-68
2022/06/16 05:48:02;;;;;;;10.13;3.67;;;;;;;22.12;45.59;100595.00;4140355;28;20501;-69
2022/06/16 05:50:09;;;;;;;8.30;3.90;;;;;;;22.14;45.85;100600.25;4130731;28;20042;-68
2022/06/16 05:52:14;;;;;;;9.45;3.80;;;;;;;22.21;45.93;100609.75;4147368;28;20064;-68
2022/06/16 05:54:29;;;;;;;8.95;3.78;;;;;;;22.28;45.81;100607.75;4132904;28;20421;-68
2022/06/16 05:56:32;;;;;;;8.18;3.70;;;;;;;22.31;45.98;100618.22;4131221;28;20137;-68
2022/06/16 05:58:36;;;;;;;9.85;3.60;;;;;;;22.45;45.84;100616.03;4162267;28;20046;-68
2022/06/16 06:00:40;;;;;;;6.90;3.65;;;;;;;22.41;45.69;100614.41;4146044;28;20045;-68
2022/06/16 06:02:51;;;;;;;8.23;3.17;;;;;;;22.38;45.75;100613.66;4127667;28;20042;-68
2022/06/16 06:04:56;;;;;;;11.38;3.35;;;;;;;22.43;45.56;100619.69;4146878;28;20109;-67
2022/06/16 06:06:58;;;;;;;11.35;3.22;;;;;;;22.39;45.96;100624.19;4150617;28;20073;-67
2022/06/16 06:18:38;;;;;;;8.70;3.58;;;;;;;22.80;44.00;100629.03;4110859;28;20104;-67
2022/06/16 06:20:43;;;;;;;9.85;3.08;;;;;;;22.81;43.77;100633.44;4148316;28;20041;-67
2022/06/16 06:22:46;;;;;;;8.05;3.63;;;;;;;22.84;43.37;100633.34;4146795;28;20042;-67
2022/06/16 06:24:55;;;;;;;6.82;2.97;;;;;;;22.83;43.72;100629.78;4145379;28;20042;-68
2022/06/16 06:27:10;;;;;;;6.07;2.72;;;;;;;22.83;43.36;100629.78;4146023;28;20044;-68
2022/06/16 06:29:13;;;;;;;6.75;2.92;;;;;;;22.76;43.96;100628.25;4146674;28;20049;-68
2022/06/16 06:31:16;;;;;;;6.72;3.25;;;;;;;22.81;43.48;100636.09;4145430;28;20038;-68
2022/06/16 06:33:19;;;;;;;6.03;3.22;;;;;;;22.79;43.83;100630.84;4147715;28;20041;-68
2022/06/16 06:35:22;;;;;;;7.97;3.00;;;;;;;22.88;44.19;100632.31;4128842;28;20042;-67
2022/06/16 06:37:27;;;;;;;6.05;3.00;;;;;;;22.92;43.93;100628.59;4147751;28;20457;-68
2022/06/16 06:39:32;;;;;;;5.75;3.10;;;;;;;22.92;43.79;100643.66;4140722;28;20104;-67
2022/06/16 06:41:40;;;;;;;7.63;3.15;;;;;;;22.93;44.51;100645.41;4148019;28;20132;-68
2022/06/16 06:43:43;;;;;;;6.45;3.20;;;;;;;22.99;44.21;100645.19;4148247;28;20129;-67
2022/06/16 06:45:46;;;;;;;7.83;3.17;;;;;;;22.97;44.59;100639.09;4147969;28;20046;-68
2022/06/16 06:47:50;;;;;;;9.48;4.00;;;;;;;23.12;45.03;100643.00;4147178;28;20100;-67
2022/06/16 06:49:53;;;;;;;9.13;3.30;;;;;;;23.14;44.93;100647.34;4148192;28;20033;-68
2022/06/16 06:51:56;;;;;;;5.22;2.80;;;;;;;23.18;44.70;100653.41;4160891;28;20076;-68
2022/06/16 06:54:01;;;;;;;6.80;3.15;;;;;;;23.26;44.54;100664.63;4157778;28;20544;-68
2022/06/16 06:56:05;;;;;;;4.40;2.75;;;;;;;23.19;44.95;100657.78;4142996;28;20053;-71
2022/06/16 06:58:08;;;;;;;8.52;3.53;;;;;;;23.34;44.41;100666.97;4145567;28;20038;-70
2022/06/16 07:00:14;;;;;;;8.95;3.30;;;;;;;23.29;44.87;100659.19;4146739;28;20104;-69
2022/06/16 07:02:18;;;;;;;6.25;3.00;;;;;;;23.17;45.22;100675.53;4139806;28;20136;-69
2022/06/16 07:04:21;;;;;;;9.40;2.92;;;;;;;23.16;45.25;100668.50;4146902;28;20039;-69
2022/06/16 07:06:24;;;;;;;8.38;2.78;;;;;;;23.21;45.07;100676.31;4135068;28;20066;-68
2022/06/16 07:08:27;;;;;;;8.88;3.28;;;;;;;23.47;44.87;100683.34;4146660;28;20125;-68
2022/06/16 07:10:32;;;;;;;7.63;3.30;;;;;;;23.51;44.32;100684.97;4138860;28;20135;-70
2022/06/16 07:12:35;;;;;;;10.45;3.42;;;;;;;23.58;44.32;100681.13;4141902;28;20052;-69
2022/06/16 07:14:38;;;;;;;4.70;2.95;;;;;;;23.38;44.59;100686.31;4150403;28;20050;-70
2022/06/16 07:16:43;;;;;;;4.55;2.65;;;;;;;23.37;45.04;100700.50;4139222;28;20042;-70
2022/06/16 07:18:51;;;;;;;7.72;2.83;;;;;;;23.46;44.84;100697.50;4136894;28;20072;-68
2022/06/16 07:20:54;;;;;;;5.07;2.95;;;;;;;23.49;44.61;100697.41;4148627;28;20040;-69
2022/06/16 07:22:57;;;;;;;9.13;3.15;;;;;;;23.45;44.75;100707.28;4144509;28;20069;-69
2022/06/16 07:25:01;;;;;;;9.38;3.60;;;;;;;23.67;43.72;100696.75;4126343;28;20062;-69
2022/06/16 07:27:06;;;;;;;5.68;2.28;;;;;;;23.78;42.96;100699.00;4143305;28;20415;-68
2022/06/16 07:29:10;;;;;;;6.00;3.17;;;;;;;23.83;42.81;100698.81;4139991;28;20038;-69
2022/06/16 07:31:13;;;;;;;9.45;2.80;;;;;;;23.87;41.95;100706.66;4142643;28;20108;-69
2022/06/16 07:33:36;;;;;;;9.18;3.00;;;;;;;24.11;40.60;100713.75;4144653;28;20112;-66
2022/06/16 07:35:41;;;;;;;11.13;3.17;;;;;;;24.03;41.02;100700.75;4161335;28;20037;-65
2022/06/16 07:37:44;;;;;;;9.77;3.47;;;;;;;23.99;42.05;100700.03;4156538;28;20040;-65
2022/06/16 07:39:47;;;;;;;5.97;2.30;;;;;;;23.89;42.50;100703.97;4138762;28;20515;-65
2022/06/16 07:41:50;;;;;;;12.32;3.65;;;;;;;24.14;42.14;100708.34;4161622;28;20044;-65
2022/06/16 07:43:54;;;;;;;6.35;3.45;;;;;;;24.15;40.78;100713.59;4139840;28;20512;-69
2022/06/16 07:46:00;;;;;;;6.07;3.33;;;;;;;24.12;41.33;100708.38;4144409;28;20128;-67
2022/06/16 07:48:05;;;;;;;7.93;2.65;;;;;;;24.18;41.11;100720.56;4160585;28;20515;-67
2022/06/16 07:50:11;;;;;;;8.10;3.05;;;;;;;24.31;40.66;100715.63;4146067;28;20041;-66
2022/06/16 07:52:14;;;;;;;6.82;2.72;;;;;;;24.22;41.29;100714.19;4146841;28;20052;-60
2022/06/16 07:54:18;;;;;;;8.23;3.00;;;;;;;24.36;41.37;100716.34;4146366;28;20041;-62
2022/06/16 07:56:41;;;;;;;9.85;3.15;;;;;;;24.49;40.56;100708.75;4143287;28;20380;-64
2022/06/16 07:58:44;;;;;;;11.05;3.47;;;;;;;24.55;40.86;100717.31;4143036;28;20041;-63
2022/06/16 08:00:48;;;;;;;9.05;3.28;;;;;;;24.50;41.04;100711.34;4142014;28;20034;-64
2022/06/16 08:02:51;;;;;;;4.85;2.65;;;;;;;24.54;41.00;100709.41;4145972;28;20038;-65
2022/06/16 08:04:57;;;;;;;12.20;3.33;;;;;;;24.57;40.96;100712.84;4158906;28;20073;-65
2022/06/16 08:07:01;;;;;;;6.53;2.80;;;;;;;24.63;41.02;100708.22;4142054;28;20049;-65
2022/06/16 08:09:08;;;;;;;7.35;3.00;;;;;;;24.68;40.84;100707.09;4140529;28;20129;-64
2022/06/16 08:13:31;;;;;;;4.85;2.53;;;;;;;24.74;40.78;100714.81;4146883;28;20046;-66
2022/06/16 08:15:34;;;;;;;7.18;2.97;;;;;;;24.90;40.38;100712.41;4149508;28;20041;-66
2022/06/16 08:17:41;;;;;;;7.25;3.00;;;;;;;24.88;40.39;100710.72;4143670;28;20128;-64
2022/06/16 08:19:44;;;;;;;7.90;3.00;;;;;;;24.90;40.92;100727.50;4149637;28;20140;-64
2022/06/16 08:21:47;;;;;;;13.48;3.10;;;;;;;24.96;40.40;100721.06;4154463;28;20034;-65
2022/06/16 08:23:49;;;;;;;8.07;2.83;;;;;;;25.01;40.98;100730.56;4150863;28;20060;-64
2022/06/16 08:25:52;;;;;;;4.75;2.20;;;;;;;24.90;40.76;100730.16;4151953;28;20116;-63
2022/06/16 08:27:56;;;;;;;5.82;3.08;;;;;;;24.90;41.06;100730.16;4150001;28;20042;-63
2022/06/16 08:30:00;;;;;;;4.43;2.55;;;;;;;25.00;40.84;100735.94;4144284;28;20049;-64
2022/06/16 08:32:04;;;;;;;6.00;2.38;;;;;;;25.19;40.40;100739.59;4148203;28;20042;-65
2022/06/16 08:34:09;;;;;;;10.02;2.90;;;;;;;25.42;39.54;100735.97;4148727;28;20045;-65
2022/06/16 08:36:12;;;;;;;8.45;2.90;;;;;;;25.17;40.50;100745.88;4148706;28;20052;-65
2022/06/16 08:38:15;;;;;;;9.85;3.15;;;;;;;25.28;40.28;100740.97;4149265;28;20041;-66
2022/06/16 08:40:20;;;;;;;7.10;2.70;;;;;;;25.45;38.96;100745.59;4149405;28;20033;-67
2022/06/16 08:42:26;;;;;;;7.50;2.97;;;;;;;25.32;39.67;100747.94;4145556;28;20120;-66
2022/06/16 08:44:35;;;;;;;9.27;2.53;;;;;;;25.57;39.22;100752.22;4150432;28;20050;-66
2022/06/16 08:46:44;;;;;;;7.18;3.28;;;;;;;25.59;38.57;100742.34;4140253;28;20033;-63
2022/06/16 08:48:58;;;;;;;6.55;3.22;;;;;;;25.62;37.99;100747.53;4150535;28;20053;-67
2022/06/16 08:51:08;;;;;;;11.50;3.70;;;;;;;25.73;37.78;100747.94;4165163;28;20041;-63
2022/06/16 08:53:22;;;;;;;6.95;3.03;;;;;;;25.61;38.00;100761.75;4166250;28;20435;-66
2022/06/16 08:55:33;;;;;;;8.32;2.67;;;;;;;25.62;38.56;100763.50;4162934;28;20056;-65
2022/06/16 08:57:48;;;;;;;7.20;2.80;;;;;;;25.53;39.29;100766.59;4151978;28;20081;-63
2022/06/16 08:59:54;;;;;;;4.97;2.60;;;;;;;25.72;38.66;100772.81;4163053;28;20132;-64
2022/06/16 09:02:04;;;;;;;4.05;2.53;;;;;;;25.73;38.37;100769.22;4142975;28;20164;-63
2022/06/16 09:04:11;;;;;;;5.47;2.75;;;;;;;25.86;38.10;100771.34;4145760;28;20042;-64
2022/06/16 09:06:29;;;;;;;4.97;2.30;;;;;;;26.02;37.83;100766.22;4147719;28;20050;-63
2022/06/16 09:08:43;;;;;;;8.32;2.85;;;;;;;26.22;36.85;100770.63;4141499;28;20489;-64
2022/06/16 09:10:51;;;;;;;7.82;2.80;;;;;;;26.26;36.31;100769.56;4161424;28;20049;-64
2022/06/16 09:13:21;;;;;;;7.93;2.78;;;;;;;26.25;36.59;100768.69;4146700;28;20046;-64
2022/06/16 09:15:33;;;;;;;8.73;2.70;;;;;;;26.14;37.10;100765.66;4137957;28;20057;-63
2022/06/16 09:17:47;;;;;;;8.00;2.90;;;;;;;26.34;36.46;100770.03;4147694;28;20034;-63
2022/06/16 09:20:11;;;;;;;6.03;2.67;;;;;;;26.45;36.44;100764.22;4146260;28;20105;-64
2022/06/16 09:22:37;;;;;;;5.72;2.35;;;;;;;26.44;36.11;100763.34;4146032;28;20049;-63
2022/06/16 09:24:56;;;;;;;6.93;2.55;;;;;;;26.59;35.71;100755.56;4143717;28;20121;-65
2022/06/16 09:27:06;;;;;;;5.28;2.72;;;;;;;26.60;36.21;100758.16;4170021;28;20501;-64
2022/06/16 09:29:15;;;;;;;7.20;2.35;;;;;;;26.69;35.56;100761.34;4149598;28;20046;-64
2022/06/16 09:31:22;;;;;;;8.10;2.50;;;;;;;26.92;34.01;100768.22;4141712;28;20041;-65
2022/06/16 09:33:30;;;;;;;6.75;3.00;;;;;;;26.82;34.09;100765.16;4145874;28;20084;-65
2022/06/16 09:35:39;;;;;;;7.22;2.92;;;;;;;26.82;34.82;100767.81;4164085;28;20049;-64
2022/06/16 09:37:52;;;;;;;6.35;2.22;;;;;;;26.74;35.53;100770.88;4147142;28;20038;-64
2022/06/16 09:39:58;;;;;;;7.47;2.47;;;;;;;26.92;35.38;100769.09;4148605;28;20038;-64
2022/06/16 09:44:31;;;;;;;5.82;2.58;;;;;;;27.15;34.80;100773.28;4148490;28;20133;-63
2022/06/16 09:46:41;;;;;;;6.38;2.30;;;;;;;27.14;34.74;100774.22;4147715;28;20034;-64
2022/06/16 09:48:50;;;;;;;7.38;2.85;;;;;;;27.32;33.79;100774.22;4149437;28;20044;-66
2022/06/16 09:50:58;;;;;;;6.28;2.90;;;;;;;27.31;33.89;100780.53;4145003;28;20441;-64
2022/06/16 09:53:06;;;;;;;5.55;3.00;;;;;;;27.33;34.04;100773.28;4140717;28;20038;-65
2022/06/16 09:55:15;;;;;;;7.22;2.88;;;;;;;27.30;33.62;100774.31;4146688;28;20042;-66
2022/06/16 09:57:24;;;;;;;7.43;3.00;;;;;;;27.36;34.45;100766.97;4143449;28;20169;-64
2022/06/16 09:59:32;;;;;;;7.95;3.20;;;;;;;27.37;34.14;100772.22;4146638;28;20061;-67
2022/06/16 10:01:43;;;;;;;8.38;3.10;;;;;;;27.45;34.68;100772.72;4146911;28;20172;-65
2022/06/16 10:03:58;;;;;;;9.77;3.50;;;;;;;27.56;33.94;100779.31;4156495;28;20491;-69
2022/06/16 10:06:10;;;;;;;10.88;3.22;;;;;;;27.57;34.03;100762.31;4142340;28;20061;-63
2022/06/16 10:08:20;;;;;;;7.35;3.22;;;;;;;27.59;33.95;100779.13;4146745;28;20041;-61
2022/06/16 10:10:33;;;;;;;8.27;3.47;;;;;;;27.49;34.42;100774.25;4142273;28;20042;-64
2022/06/16 10:12:45;;;;;;;5.80;2.50;;;;;;;27.55;34.06;100773.06;4142408;28;20415;-63
2022/06/16 10:14:53;;;;;;;9.48;3.25;;;;;;;27.63;34.21;100781.56;4147199;28;20408;-63
2022/06/16 10:16:59;;;;;;;8.25;2.80;;;;;;;27.69;34.66;100775.03;4144427;28;20038;-63
2022/06/16 10:19:02;;;;;;;5.53;2.63;;;;;;;27.67;34.27;100782.25;4149844;28;20128;-63
2022/06/16 10:21:10;;;;;;;6.90;3.50;;;;;;;27.89;33.39;100781.13;4147601;28;20060;-64